Terminal Aerodrome Forecast
Issued by NWS

Home | Current Version | Previous Version | Text Only | Print | Product List | Glossary On
Versions: 1 2 3 4 5 6 7 8 9 10 11 12
000
FTUS42 TJSJ 271100
TAFNCM
TAF
TNCM 271254Z 2712/2812 09012KT P6SM FEW020
     FM271400 10015KT P6SM FEW020
     FM272330 09012KT P6SM FEW019=

USA.gov is the U.S. government's official web portal to all federal, state and local government web resources and services.